Aeroporto :
LOGIN :

Iscrizione | Disclaimer

   EN    FR    IT 

 










Sommario :    VFR   VFR Marginale   IFR   IFR Intensivo   IFR Molto Intensivo
Visibilità : 
Base nubi : 
>= 8 km
>= 3000ft
5 / 8 km
1000 / 3000 ft
1500m / 5 km
500 / 1000 ft
800 / 1500m
200 / 500 ft
< 800m
< 200 ft
Simboli :   Temporali  Nebbia  Neve Forte  Precipitazioni Forti  Vento > 20 kt
SIGMETs :   Varie  Temporali  Ghiacco  Turbolenza  Onda orograficha  Ceneri Vulcaniche







- Altitudine del aeroporto : 681 ft
- Codice IATA : LBA
- Carte del aeroporto


EGNM - Leeds Bradford

ULTIMO METAR :
  • 190550Z 24005KT 9999 FEW021 BKN048 06/05 Q1023

METARs OBSOLETI :
  • 190520Z 24006KT 9999 BKN042 06/05 Q1023
  • 190450Z 24006KT 9999 SCT045 05/05 Q1023
  • 190420Z 24004KT 9999 SCT045 05/04 Q1023
  • 190350Z 28002KT CAVOK 05/04 Q1022
  • 190320Z 26005KT CAVOK 05/04 Q1022

TAF TAF EGNM
Valido dal 19 a 06 ore il 20 a 06 ore UTC


190456Z 1906/2006 24006KT 9999 SCT015
TEMPO 1906/1914 7000 BKN010
PROB30
TEMPO 1906/1910 4000 -RADZ BR BKN006
TEMPO 1919/2006 BKN010
PROB40
TEMPO 1919/2006 8000 -DZ BKN006
ATIS : +44 113 250 9696 (x2489)
Nessun NOTAM noto per questo aeroporto.



MetMap, La meteo Aeronautica in un colpo d'occhio ! - Copyright ORBIFLY Dicembre 2007 - Disclaimer

ORBIFLY MET'MAP TEAM :

Programmazione e sviluppo : Alexandra Zaïnal
Concezione e sviluppo : Baudouin d'Aumeries
Co-Programmazione e sviluppo : Marc-Olivier Méhu
Supporto tecnico e logistico : Manuel Goepfert
Aiuto per la traduzione : Arnaldo La Scala

Contatto : metmap@orbifly.com




FONTI E CREDITI :

   NOAA